Terminal Aerodrome Forecast
Issued by NWS

Current Version | Previous Version | Text Only | Print | Product List | Glossary On
Versions: 1 2 3 4 5 6 7 8 9 10 11 12 13 14 15 16
465
FTUS46 KLOX 081420 AAB
TAFSBP
TAF AMD
KSBP 081420Z 0814/0912 14006KT P6SM VCSH BKN015 OVC025
     FM081700 14006KT P6SM -RA SCT015 OVC025
     FM082200 17008KT 3SM -RA BR BKN008 OVC015
     FM090300 32008KT P6SM -SHRA BKN008 OVC015
     FM090700 VRB03KT P6SM VCSH BKN015 OVC025=

USA.gov is the U.S. government's official web portal to all federal, state and local government web resources and services.